Time;durP1;ratioP1;P1;durP2;ratioP2;P2;SDS_P1;SDS_P2;PMS_P1;PMS_P2;Temp;Humidity;BMP_temperature;BMP_pressure;BME280_temperature;BME280_humidity;BME280_pressure;Samples;Min_cycle;Max_cycle;Signal;HPM_P1;HPM_P2
2021/11/27 00:00:00;;;;;;;13.18;6.13;;;;;;;;;;5002944;28;20707;-58
2021/11/27 00:02:25;;;;;;;14.48;6.68;;;;;;;;;;5004296;28;20041;-59
2021/11/27 00:04:51;;;;;;;12.48;6.00;;;;;;;;;;4999928;28;20384;-59
2021/11/27 00:07:16;;;;;;;14.77;6.93;;;;;;;;;;5002341;28;20074;-59
2021/11/27 00:09:42;;;;;;;17.02;7.05;;;;;;;;;;5000714;28;20385;-57
2021/11/27 00:12:07;;;;;;;18.02;8.07;;;;;;;;;;5005457;28;20034;-56
2021/11/27 00:14:34;;;;;;;15.18;6.85;;;;;;;;;;5002317;28;20030;-58
2021/11/27 00:17:00;;;;;;;17.33;7.90;;;;;;;;;;5000223;28;20041;-57
2021/11/27 00:19:26;;;;;;;14.90;7.20;;;;;;;;;;5003567;28;20101;-58
2021/11/27 00:21:51;;;;;;;16.27;8.30;;;;;;;;;;5002391;28;20172;-57
2021/11/27 00:24:17;;;;;;;16.40;7.35;;;;;;;;;;5001672;28;20036;-59
2021/11/27 00:26:42;;;;;;;16.63;7.65;;;;;;;;;;5002134;28;20045;-60
2021/11/27 00:29:08;;;;;;;15.65;7.97;;;;;;;;;;5003403;28;20029;-59
2021/11/27 00:31:36;;;;;;;14.60;6.93;;;;;;;;;;5002384;28;20064;-59
2021/11/27 00:34:02;;;;;;;17.15;7.90;;;;;;;;;;5002590;28;20408;-58
2021/11/27 00:36:27;;;;;;;16.85;7.40;;;;;;;;;;4999070;28;20028;-58
2021/11/27 00:38:54;;;;;;;13.90;6.53;;;;;;;;;;5002404;28;20091;-59
2021/11/27 00:41:20;;;;;;;14.73;6.60;;;;;;;;;;5000193;28;20029;-59
2021/11/27 00:43:46;;;;;;;14.93;7.15;;;;;;;;;;5004234;28;20036;-56
2021/11/27 00:46:12;;;;;;;13.77;6.60;;;;;;;;;;5002060;28;20042;-58
2021/11/27 00:48:38;;;;;;;15.35;7.45;;;;;;;;;;4999210;28;20037;-58
2021/11/27 00:51:17;;;;;;;17.05;8.40;;;;;;;;;;5001002;28;20029;-58
2021/11/27 00:53:42;;;;;;;15.77;7.20;;;;;;;;;;5000620;28;20024;-59
2021/11/27 00:56:08;;;;;;;13.27;7.07;;;;;;;;;;5001360;28;20458;-59
2021/11/27 00:58:34;;;;;;;12.80;7.05;;;;;;;;;;5001868;28;20030;-58
2021/11/27 01:01:06;;;;;;;16.77;7.97;;;;;;;;;;5001203;28;20040;-59
2021/11/27 01:03:33;;;;;;;16.23;7.28;;;;;;;;;;5002477;28;20061;-58
2021/11/27 01:06:02;;;;;;;13.52;6.95;;;;;;;;;;5001054;28;20033;-58
2021/11/27 01:08:28;;;;;;;15.30;7.13;;;;;;;;;;4996012;28;20137;-59
2021/11/27 01:11:00;;;;;;;15.30;7.88;;;;;;;;;;5000041;28;20038;-58
2021/11/27 01:13:26;;;;;;;16.02;7.05;;;;;;;;;;4999104;28;20030;-56
2021/11/27 01:15:51;;;;;;;16.30;6.93;;;;;;;;;;5001106;28;20036;-58
2021/11/27 01:18:17;;;;;;;13.45;6.50;;;;;;;;;;4998842;28;20129;-58
2021/11/27 01:20:48;;;;;;;14.00;6.57;;;;;;;;;;4999284;28;20030;-58
2021/11/27 01:23:14;;;;;;;12.75;6.43;;;;;;;;;;5001508;28;20018;-58
2021/11/27 01:25:40;;;;;;;12.57;6.20;;;;;;;;;;5000159;28;20041;-57
2021/11/27 01:28:07;;;;;;;14.82;7.35;;;;;;;;;;5000690;28;20048;-55
2021/11/27 01:30:33;;;;;;;13.85;6.93;;;;;;;;;;5001553;28;20489;-58
2021/11/27 01:32:59;;;;;;;15.50;6.40;;;;;;;;;;5001755;28;20030;-57
2021/11/27 01:35:24;;;;;;;11.00;5.75;;;;;;;;;;5003005;28;20030;-56
2021/11/27 01:37:50;;;;;;;13.02;5.53;;;;;;;;;;5002122;28;20049;-57
2021/11/27 01:40:19;;;;;;;12.25;5.07;;;;;;;;;;4997160;28;20060;-59
2021/11/27 01:42:45;;;;;;;12.40;5.57;;;;;;;;;;4996898;28;20489;-58
2021/11/27 01:45:12;;;;;;;10.52;5.32;;;;;;;;;;5005000;28;20030;-57
2021/11/27 01:47:38;;;;;;;11.40;5.68;;;;;;;;;;4996440;28;20492;-57
2021/11/27 01:50:05;;;;;;;13.88;6.13;;;;;;;;;;4998016;28;20116;-58
2021/11/27 01:52:31;;;;;;;10.43;5.10;;;;;;;;;;4998153;28;20072;-58
2021/11/27 01:54:56;;;;;;;10.13;4.70;;;;;;;;;;5005953;28;20481;-59
2021/11/27 01:57:22;;;;;;;11.38;5.43;;;;;;;;;;4998194;28;20049;-57
2021/11/27 01:59:48;;;;;;;11.57;5.30;;;;;;;;;;5002195;28;20038;-58
2021/11/27 02:02:15;;;;;;;8.40;4.63;;;;;;;;;;5000885;28;20029;-58
2021/11/27 02:04:41;;;;;;;7.63;4.38;;;;;;;;;;5002190;28;20034;-57
2021/11/27 02:07:07;;;;;;;8.48;4.20;;;;;;;;;;5005410;28;20076;-57
2021/11/27 02:09:35;;;;;;;10.80;4.63;;;;;;;;;;5000340;28;20030;-59
2021/11/27 02:12:03;;;;;;;8.85;4.55;;;;;;;;;;5002411;28;20105;-58
2021/11/27 02:14:28;;;;;;;10.00;4.45;;;;;;;;;;5003413;28;20026;-58
2021/11/27 02:16:55;;;;;;;7.93;4.32;;;;;;;;;;4999535;28;20100;-58
2021/11/27 02:19:21;;;;;;;10.57;5.78;;;;;;;;;;4999347;28;20026;-59
2021/11/27 02:21:47;;;;;;;13.10;5.60;;;;;;;;;;5003286;28;20029;-59
2021/11/27 02:24:18;;;;;;;10.50;5.38;;;;;;;;;;4996949;28;20029;-58
2021/11/27 02:26:45;;;;;;;12.05;5.60;;;;;;;;;;5003538;28;20457;-58
2021/11/27 02:29:15;;;;;;;12.18;5.82;;;;;;;;;;5000351;28;20061;-62
2021/11/27 02:31:41;;;;;;;;;;;;;;;;;;4995548;28;20113;-58
2021/11/27 02:34:07;;;;;;;9.75;5.72;;;;;;;;;;5004918;28;20016;-58
2021/11/27 02:36:38;;;;;;;13.07;6.70;;;;;;;;;;5000968;28;20404;-60
2021/11/27 02:39:07;;;;;;;13.40;6.13;;;;;;;;;;5004837;28;20019;-60
2021/11/27 02:41:33;;;;;;;14.32;5.85;;;;;;;;;;5007056;28;20060;-58
2021/11/27 02:43:59;;;;;;;11.35;5.85;;;;;;;;;;5006740;28;20224;-58
2021/11/27 02:46:25;;;;;;;9.30;4.85;;;;;;;;;;5006979;28;20559;-58
2021/11/27 02:48:51;;;;;;;12.43;5.85;;;;;;;;;;4999917;28;20034;-58
2021/11/27 02:51:16;;;;;;;14.77;6.10;;;;;;;;;;5004473;28;20037;-58
2021/11/27 02:53:42;;;;;;;11.73;5.22;;;;;;;;;;4999072;28;20037;-59
2021/11/27 02:56:08;;;;;;;12.77;5.72;;;;;;;;;;5004584;28;20116;-58
2021/11/27 02:58:33;;;;;;;11.55;5.68;;;;;;;;;;5002012;28;20026;-58
2021/11/27 03:01:02;;;;;;;10.90;5.03;;;;;;;;;;5006792;28;20029;-58
2021/11/27 03:03:28;;;;;;;9.77;4.72;;;;;;;;;;5005484;28;20104;-58
2021/11/27 03:05:53;;;;;;;11.82;5.63;;;;;;;;;;5005755;28;20069;-58
2021/11/27 03:08:19;;;;;;;9.15;4.68;;;;;;;;;;5004776;28;20104;-59
2021/11/27 03:10:45;;;;;;;9.80;4.38;;;;;;;;;;5004780;28;20037;-57
2021/11/27 03:13:11;;;;;;;6.97;3.90;;;;;;;;;;5000907;28;20045;-55
2021/11/27 03:15:41;;;;;;;9.13;4.35;;;;;;;;;;5006520;28;20044;-57
2021/11/27 03:18:10;;;;;;;10.23;4.75;;;;;;;;;;5005819;28;20018;-58
2021/11/27 03:20:37;;;;;;;9.27;3.70;;;;;;;;;;5002744;28;20128;-58
2021/11/27 03:23:03;;;;;;;7.82;3.88;;;;;;;;;;5003232;28;20030;-58
2021/11/27 03:25:29;;;;;;;7.65;4.00;;;;;;;;;;5001762;28;20037;-58
2021/11/27 03:27:54;;;;;;;12.80;5.05;;;;;;;;;;5001482;28;20397;-59
2021/11/27 03:30:20;;;;;;;9.27;4.72;;;;;;;;;;4999184;28;20528;-58
2021/11/27 03:32:46;;;;;;;8.50;4.18;;;;;;;;;;5001405;28;20076;-58
2021/11/27 03:35:13;;;;;;;6.68;3.15;;;;;;;;;;5002760;28;20499;-59
2021/11/27 03:37:40;;;;;;;6.78;3.30;;;;;;;;;;5002252;28;20023;-57
2021/11/27 03:40:08;;;;;;;6.40;3.22;;;;;;;;;;5004763;28;20054;-58
2021/11/27 03:42:33;;;;;;;6.82;2.97;;;;;;;;;;5001631;28;20032;-57
2021/11/27 03:45:00;;;;;;;5.88;2.85;;;;;;;;;;4998116;28;20037;-58
2021/11/27 03:47:25;;;;;;;5.57;3.00;;;;;;;;;;5003851;28;20034;-59
2021/11/27 03:49:52;;;;;;;7.63;2.95;;;;;;;;;;5004070;28;20033;-58
2021/11/27 03:52:19;;;;;;;5.50;2.92;;;;;;;;;;4998004;28;20042;-58
2021/11/27 03:54:46;;;;;;;4.55;2.63;;;;;;;;;;5008224;28;20025;-58
2021/11/27 03:57:11;;;;;;;5.45;2.67;;;;;;;;;;5000936;28;20018;-59
2021/11/27 03:59:37;;;;;;;5.60;2.83;;;;;;;;;;5000384;28;20034;-59
2021/11/27 04:02:03;;;;;;;5.43;2.60;;;;;;;;;;5005789;28;20025;-58
2021/11/27 04:04:29;;;;;;;7.40;3.30;;;;;;;;;;5007678;28;20021;-58
2021/11/27 04:06:55;;;;;;;4.28;2.40;;;;;;;;;;5004434;28;20021;-59
2021/11/27 04:09:21;;;;;;;7.25;2.80;;;;;;;;;;5000668;28;20121;-57
2021/11/27 04:11:46;;;;;;;6.03;2.95;;;;;;;;;;4999328;28;20459;-59
2021/11/27 04:14:12;;;;;;;6.53;2.53;;;;;;;;;;4999681;28;20030;-58
2021/11/27 04:16:37;;;;;;;4.53;2.50;;;;;;;;;;5003494;28;20033;-57
2021/11/27 04:19:03;;;;;;;4.40;2.33;;;;;;;;;;5000862;28;20029;-58
2021/11/27 04:21:29;;;;;;;6.50;3.10;;;;;;;;;;4998783;28;20033;-58
2021/11/27 04:23:54;;;;;;;5.35;2.35;;;;;;;;;;4999661;28;20036;-58
2021/11/27 04:26:21;;;;;;;4.00;2.25;;;;;;;;;;5001870;28;20026;-58
2021/11/27 04:28:48;;;;;;;3.40;2.08;;;;;;;;;;5001846;28;20444;-58
2021/11/27 04:31:17;;;;;;;4.05;2.30;;;;;;;;;;5001449;28;20025;-59
2021/11/27 04:33:46;;;;;;;4.70;2.10;;;;;;;;;;5001432;28;20026;-59
2021/11/27 04:36:12;;;;;;;4.77;2.20;;;;;;;;;;4999404;28;20034;-58
2021/11/27 04:38:37;;;;;;;4.55;2.45;;;;;;;;;;5000772;28;20486;-58
2021/11/27 04:41:03;;;;;;;4.35;1.90;;;;;;;;;;5003994;28;20038;-58
2021/11/27 04:43:29;;;;;;;5.03;2.00;;;;;;;;;;5000280;28;20022;-58
2021/11/27 04:45:54;;;;;;;4.30;2.30;;;;;;;;;;5005977;28;20036;-59
2021/11/27 04:48:20;;;;;;;4.63;2.35;;;;;;;;;;5002929;28;20125;-58
2021/11/27 04:50:46;;;;;;;5.18;2.42;;;;;;;;;;5003598;28;20113;-58
2021/11/27 04:53:13;;;;;;;5.20;2.20;;;;;;;;;;4999647;28;20179;-58
2021/11/27 04:55:39;;;;;;;3.42;1.98;;;;;;;;;;5002099;28;20038;-58
2021/11/27 04:58:04;;;;;;;4.32;2.20;;;;;;;;;;5000356;28;20033;-57
2021/11/27 05:00:36;;;;;;;4.50;2.30;;;;;;;;;;5003584;28;20037;-57
2021/11/27 05:03:03;;;;;;;4.35;2.17;;;;;;;;;;5001200;28;20111;-58
2021/11/27 05:05:29;;;;;;;3.88;2.25;;;;;;;;;;5005194;28;20606;-58
2021/11/27 05:07:55;;;;;;;5.05;2.40;;;;;;;;;;5005551;28;20140;-59
2021/11/27 05:10:21;;;;;;;4.20;2.45;;;;;;;;;;5002947;28;20030;-58
2021/11/27 05:12:46;;;;;;;4.32;2.40;;;;;;;;;;5003051;28;20028;-58
2021/11/27 05:15:12;;;;;;;4.78;2.88;;;;;;;;;;4999720;28;20626;-58
2021/11/27 05:17:38;;;;;;;6.10;3.33;;;;;;;;;;5000421;28;20026;-58
2021/11/27 05:20:05;;;;;;;5.22;3.08;;;;;;;;;;5003229;28;20560;-58
2021/11/27 05:22:31;;;;;;;6.45;3.00;;;;;;;;;;5002552;28;20030;-57
2021/11/27 05:24:56;;;;;;;6.25;3.13;;;;;;;;;;5003269;28;20045;-58
2021/11/27 05:27:22;;;;;;;6.25;3.22;;;;;;;;;;5001509;28;20509;-58
2021/11/27 05:29:49;;;;;;;4.30;2.55;;;;;;;;;;5000310;28;20168;-59
2021/11/27 05:32:26;;;;;;;7.28;3.20;;;;;;;;;;4998996;28;20386;-58
2021/11/27 05:34:53;;;;;;;6.15;3.17;;;;;;;;;;4998969;28;20029;-58
2021/11/27 05:37:20;;;;;;;4.75;2.85;;;;;;;;;;5000099;28;20037;-56
2021/11/27 05:39:46;;;;;;;4.82;2.33;;;;;;;;;;4999275;28;20096;-58
2021/11/27 05:42:14;;;;;;;7.10;2.55;;;;;;;;;;4999984;28;20507;-58
2021/11/27 05:44:40;;;;;;;4.47;2.60;;;;;;;;;;5002262;28;20026;-58
2021/11/27 05:47:06;;;;;;;4.65;2.22;;;;;;;;;;5000969;28;20468;-58
2021/11/27 05:49:31;;;;;;;3.10;1.95;;;;;;;;;;4994977;28;20030;-58
2021/11/27 05:51:57;;;;;;;4.07;2.17;;;;;;;;;;5001883;28;20096;-59
2021/11/27 05:54:22;;;;;;;2.92;2.20;;;;;;;;;;4999885;28;20037;-58
2021/11/27 05:56:48;;;;;;;5.28;2.42;;;;;;;;;;5002318;28;20034;-58
2021/11/27 05:59:13;;;;;;;3.17;2.15;;;;;;;;;;5001556;28;20026;-58
2021/11/27 06:01:39;;;;;;;5.20;2.00;;;;;;;;;;5000798;28;20053;-58
2021/11/27 06:04:04;;;;;;;3.35;2.10;;;;;;;;;;5002630;28;20395;-58
2021/11/27 06:06:30;;;;;;;3.40;1.90;;;;;;;;;;5001784;28;20036;-58
2021/11/27 06:08:56;;;;;;;3.33;1.90;;;;;;;;;;5003327;28;20129;-60
2021/11/27 06:11:22;;;;;;;2.85;2.10;;;;;;;;;;5001884;28;20026;-60
2021/11/27 06:13:49;;;;;;;5.22;2.42;;;;;;;;;;5003621;28;20053;-60
2021/11/27 06:16:15;;;;;;;3.75;2.20;;;;;;;;;;5004658;28;20033;-60
2021/11/27 06:18:40;;;;;;;3.60;1.98;;;;;;;;;;5002697;28;20022;-60
2021/11/27 06:21:06;;;;;;;3.17;1.90;;;;;;;;;;5006788;28;20546;-60
2021/11/27 06:23:32;;;;;;;2.97;1.67;;;;;;;;;;5003940;28;20072;-59
2021/11/27 06:25:57;;;;;;;4.93;2.35;;;;;;;;;;5004219;28;20476;-61
2021/11/27 06:28:23;;;;;;;3.63;2.22;;;;;;;;;;5004498;28;20038;-60
2021/11/27 06:30:49;;;;;;;3.17;1.95;;;;;;;;;;5005886;28;20029;-60
2021/11/27 06:33:15;;;;;;;1.50;1.33;;;;;;;;;;5005909;28;20092;-60
2021/11/27 06:35:41;;;;;;;2.72;1.70;;;;;;;;;;5006777;28;20424;-60
2021/11/27 06:38:06;;;;;;;3.28;2.20;;;;;;;;;;5004737;28;20030;-59
2021/11/27 06:40:32;;;;;;;2.10;1.60;;;;;;;;;;4999683;28;20429;-59
2021/11/27 06:43:01;;;;;;;2.17;1.65;;;;;;;;;;5008214;28;20084;-60
2021/11/27 06:45:27;;;;;;;4.00;1.70;;;;;;;;;;5003921;28;20022;-60
2021/11/27 06:47:53;;;;;;;6.38;2.38;;;;;;;;;;5000836;28;20080;-60
2021/11/27 06:50:18;;;;;;;5.75;2.58;;;;;;;;;;5003285;28;20034;-60
2021/11/27 06:52:44;;;;;;;3.08;1.90;;;;;;;;;;5003902;28;20473;-60
2021/11/27 06:55:09;;;;;;;3.30;1.85;;;;;;;;;;5004259;28;20026;-61
2021/11/27 06:57:35;;;;;;;5.07;2.80;;;;;;;;;;5002580;28;20026;-60
2021/11/27 07:00:01;;;;;;;6.05;2.85;;;;;;;;;;5003026;28;20037;-60
2021/11/27 07:02:26;;;;;;;4.03;2.22;;;;;;;;;;5000466;28;20030;-60
2021/11/27 07:04:51;;;;;;;4.47;2.55;;;;;;;;;;5008534;28;20033;-60
2021/11/27 07:07:17;;;;;;;6.03;2.72;;;;;;;;;;5005109;28;20496;-60
2021/11/27 07:09:42;;;;;;;5.32;3.35;;;;;;;;;;5002003;28;20030;-60
2021/11/27 07:12:08;;;;;;;7.30;4.10;;;;;;;;;;5008604;28;20099;-59
2021/11/27 07:14:33;;;;;;;8.02;4.00;;;;;;;;;;5004889;28;20243;-60
2021/11/27 07:16:59;;;;;;;7.70;3.45;;;;;;;;;;5002137;28;20037;-59
2021/11/27 07:19:24;;;;;;;6.43;3.72;;;;;;;;;;5001442;28;20034;-60
2021/11/27 07:21:50;;;;;;;6.32;2.95;;;;;;;;;;5004148;28;20021;-59
2021/11/27 07:24:15;;;;;;;6.05;3.38;;;;;;;;;;5002371;28;20087;-60
2021/11/27 07:26:41;;;;;;;4.78;3.13;;;;;;;;;;5006027;28;20026;-60
2021/11/27 07:29:06;;;;;;;5.82;3.38;;;;;;;;;;5000834;28;20030;-60
2021/11/27 07:31:32;;;;;;;5.85;3.13;;;;;;;;;;5004028;28;20134;-59
2021/11/27 07:33:57;;;;;;;5.20;2.85;;;;;;;;;;5004933;28;20030;-59
2021/11/27 07:36:22;;;;;;;5.38;2.85;;;;;;;;;;5005889;28;20029;-60
2021/11/27 07:38:48;;;;;;;4.32;2.72;;;;;;;;;;5002741;28;20657;-60
2021/11/27 07:41:13;;;;;;;4.65;3.05;;;;;;;;;;5001430;28;20678;-59
2021/11/27 07:43:39;;;;;;;4.28;2.65;;;;;;;;;;4996229;28;20034;-60
2021/11/27 07:46:06;;;;;;;5.70;2.85;;;;;;;;;;5002041;28;20057;-60
2021/11/27 07:48:31;;;;;;;4.72;2.95;;;;;;;;;;5002142;28;20032;-59
2021/11/27 07:51:02;;;;;;;10.80;4.28;;;;;;;;;;4999401;28;20472;-60
2021/11/27 07:53:28;;;;;;;6.55;3.15;;;;;;;;;;5005194;28;20077;-60
2021/11/27 07:55:54;;;;;;;3.78;2.47;;;;;;;;;;5002088;28;20128;-59
2021/11/27 07:58:20;;;;;;;4.85;2.90;;;;;;;;;;5002066;28;20038;-60
2021/11/27 08:00:45;;;;;;;3.88;2.83;;;;;;;;;;5002778;28;20033;-60
2021/11/27 08:03:11;;;;;;;7.43;3.13;;;;;;;;;;5005763;28;20029;-60
2021/11/27 08:05:37;;;;;;;4.82;2.78;;;;;;;;;;5000503;28;20034;-59
2021/11/27 08:08:02;;;;;;;4.53;2.80;;;;;;;;;;4999827;28;20145;-58
2021/11/27 08:10:27;;;;;;;8.88;4.15;;;;;;;;;;5002776;28;20029;-58
2021/11/27 08:12:53;;;;;;;7.78;3.50;;;;;;;;;;5005036;28;20138;-60
2021/11/27 08:15:18;;;;;;;6.32;2.90;;;;;;;;;;5003091;28;20033;-59
2021/11/27 08:17:44;;;;;;;4.32;2.00;;;;;;;;;;5002655;28;20022;-58
2021/11/27 08:20:10;;;;;;;2.67;1.95;;;;;;;;;;4994888;28;20041;-59
2021/11/27 08:22:37;;;;;;;2.65;1.70;;;;;;;;;;5001360;28;20393;-57
2021/11/27 08:25:03;;;;;;;5.20;2.90;;;;;;;;;;5005782;28;20492;-57
2021/11/27 08:27:29;;;;;;;5.05;2.38;;;;;;;;;;5000721;28;20036;-59
2021/11/27 08:29:57;;;;;;;7.35;3.67;;;;;;;;;;5000177;28;20448;-60
2021/11/27 08:32:23;;;;;;;3.70;2.30;;;;;;;;;;4994170;28;20088;-59
2021/11/27 08:34:49;;;;;;;2.60;1.75;;;;;;;;;;4999851;28;20042;-60
2021/11/27 08:37:14;;;;;;;2.20;1.95;;;;;;;;;;5000882;28;20026;-60
2021/11/27 08:39:40;;;;;;;2.33;1.80;;;;;;;;;;4999574;28;20499;-59
2021/11/27 08:42:05;;;;;;;2.95;1.90;;;;;;;;;;5003010;28;20061;-60
2021/11/27 08:44:31;;;;;;;2.03;1.70;;;;;;;;;;4999627;28;20037;-60
2021/11/27 08:46:57;;;;;;;3.38;1.80;;;;;;;;;;5004368;28;20049;-60
2021/11/27 08:49:22;;;;;;;2.42;1.70;;;;;;;;;;4999357;28;20093;-59
2021/11/27 08:51:48;;;;;;;2.50;1.70;;;;;;;;;;5001754;28;20092;-60
2021/11/27 08:54:14;;;;;;;1.85;1.50;;;;;;;;;;5001237;28;20037;-60
2021/11/27 08:56:40;;;;;;;2.20;1.85;;;;;;;;;;5002615;28;20034;-60
2021/11/27 08:59:05;;;;;;;3.92;1.90;;;;;;;;;;4998290;28;20543;-59
2021/11/27 09:01:31;;;;;;;1.88;1.60;;;;;;;;;;4998338;28;20034;-59
2021/11/27 09:03:57;;;;;;;2.20;1.73;;;;;;;;;;5001818;28;20037;-60
2021/11/27 09:06:24;;;;;;;2.00;1.60;;;;;;;;;;4997760;28;20029;-60
2021/11/27 09:08:50;;;;;;;3.83;2.08;;;;;;;;;;5001139;28;20033;-60
2021/11/27 09:11:18;;;;;;;2.28;1.60;;;;;;;;;;4997101;28;20614;-60
2021/11/27 09:13:44;;;;;;;5.35;2.30;;;;;;;;;;5005943;28;20029;-60
2021/11/27 09:16:10;;;;;;;2.75;1.80;;;;;;;;;;5003082;28;20026;-59
2021/11/27 09:18:36;;;;;;;5.63;3.17;;;;;;;;;;5003357;28;20036;-60
2021/11/27 09:21:02;;;;;;;8.57;3.88;;;;;;;;;;5001842;28;20173;-59
2021/11/27 09:23:27;;;;;;;9.38;3.85;;;;;;;;;;5000631;28;20026;-59
2021/11/27 09:25:53;;;;;;;9.15;3.33;;;;;;;;;;5005065;28;20495;-59
2021/11/27 09:28:19;;;;;;;3.72;2.30;;;;;;;;;;4998862;28;20038;-61
2021/11/27 09:30:44;;;;;;;5.40;2.33;;;;;;;;;;5002200;28;20488;-60
2021/11/27 09:33:10;;;;;;;5.10;2.20;;;;;;;;;;5000932;28;20037;-59
2021/11/27 09:35:36;;;;;;;5.47;2.67;;;;;;;;;;5000224;28;20041;-60
2021/11/27 09:38:01;;;;;;;7.25;3.08;;;;;;;;;;4999773;28;20029;-59
2021/11/27 09:40:28;;;;;;;3.05;1.73;;;;;;;;;;5003367;28;20034;-58
2021/11/27 09:42:54;;;;;;;5.75;2.97;;;;;;;;;;5001403;28;20029;-58
2021/11/27 09:45:25;;;;;;;3.40;2.03;;;;;;;;;;4998539;28;20504;-59
2021/11/27 09:47:53;;;;;;;4.10;2.38;;;;;;;;;;5000341;28;20038;-59
2021/11/27 09:50:20;;;;;;;3.97;2.25;;;;;;;;;;5001085;28;20036;-58
2021/11/27 09:52:47;;;;;;;4.93;2.30;;;;;;;;;;5002664;28;20042;-59
2021/11/27 09:55:17;;;;;;;5.07;2.78;;;;;;;;;;5001706;28;20117;-59
2021/11/27 09:57:49;;;;;;;4.70;2.38;;;;;;;;;;5002778;28;20025;-58
2021/11/27 10:00:17;;;;;;;5.03;2.47;;;;;;;;;;5001233;28;20573;-59
2021/11/27 10:02:44;;;;;;;3.80;2.00;;;;;;;;;;5002055;28;20415;-59
2021/11/27 10:05:12;;;;;;;5.57;3.00;;;;;;;;;;5005042;28;20028;-58
2021/11/27 10:07:40;;;;;;;5.35;2.97;;;;;;;;;;5002156;28;20026;-58
2021/11/27 10:10:07;;;;;;;5.03;2.65;;;;;;;;;;4999742;28;20052;-59
2021/11/27 10:12:33;;;;;;;4.05;2.50;;;;;;;;;;4999446;28;20037;-59
2021/11/27 10:14:58;;;;;;;4.47;2.80;;;;;;;;;;4999306;28;20034;-59
2021/11/27 10:17:30;;;;;;;5.03;2.88;;;;;;;;;;5001087;28;20480;-58
2021/11/27 10:19:58;;;;;;;13.55;6.63;;;;;;;;;;4998993;28;20093;-60
2021/11/27 10:22:26;;;;;;;5.40;3.45;;;;;;;;;;4999223;28;20068;-61
2021/11/27 10:24:52;;;;;;;9.15;4.20;;;;;;;;;;5003754;28;20654;-60
2021/11/27 10:27:24;;;;;;;5.30;2.70;;;;;;;;;;4999629;28;20512;-60
2021/11/27 10:30:07;;;;;;;3.17;1.95;;;;;;;;;;4997246;28;20052;-60
2021/11/27 10:32:43;;;;;;;5.78;2.90;;;;;;;;;;4999608;28;20037;-59
2021/11/27 10:35:15;;;;;;;37.40;15.27;;;;;;;;;;5003774;28;20523;-60
2021/11/27 10:37:41;;;;;;;5.68;3.38;;;;;;;;;;5001234;28;20028;-60
2021/11/27 10:40:28;;;;;;;7.95;3.28;;;;;;;;;;5002217;28;20030;-59
2021/11/27 10:43:00;;;;;;;4.38;2.83;;;;;;;;;;4999103;28;20033;-60
2021/11/27 10:45:31;;;;;;;5.57;3.63;;;;;;;;;;4999221;28;20188;-60
2021/11/27 10:48:14;;;;;;;9.85;6.40;;;;;;;;;;5000582;28;20125;-59
2021/11/27 10:50:55;;;;;;;33.35;15.70;;;;;;;;;;5002349;28;20030;-60
2021/11/27 10:53:22;;;;;;;12.65;8.02;;;;;;;;;;5005400;28;20017;-59
2021/11/27 10:55:48;;;;;;;19.40;13.30;;;;;;;;;;5002586;28;20041;-60
2021/11/27 10:58:14;;;;;;;13.02;7.75;;;;;;;;;;5005377;28;20029;-59
2021/11/27 11:00:43;;;;;;;7.60;4.72;;;;;;;;;;5002343;28;20109;-59
2021/11/27 11:03:33;;;;;;;5.07;3.43;;;;;;;;;;5001253;28;20026;-60
2021/11/27 11:06:01;;;;;;;5.72;3.60;;;;;;;;;;5004340;28;20025;-60
2021/11/27 11:08:31;;;;;;;4.75;3.17;;;;;;;;;;5001179;28;20594;-60
2021/11/27 11:10:56;;;;;;;;;;;;;;;;;;5006620;28;20060;-59
2021/11/27 11:13:29;;;;;;;2.75;1.80;;;;;;;;;;5005595;28;20055;-59
2021/11/27 11:15:55;;;;;;;3.05;1.98;;;;;;;;;;5002892;28;20018;-59
2021/11/27 11:18:24;;;;;;;4.13;2.30;;;;;;;;;;5003372;28;20028;-60
2021/11/27 11:20:51;;;;;;;;;;;;;;;;;;5008662;28;20080;-59
2021/11/27 11:23:45;;;;;;;2.88;1.80;;;;;;;;;;5004002;28;19968;-59
2021/11/27 11:26:21;;;;;;;3.58;2.03;;;;;;;;;;5000666;28;20468;-59
2021/11/27 11:28:58;;;;;;;3.78;1.10;;;;;;;;;;5004179;28;20038;-59
2021/11/27 11:31:27;;;;;;;11.38;4.57;;;;;;;;;;5004470;28;20125;-58
2021/11/27 11:33:56;;;;;;;3.40;1.20;;;;;;;;;;5003037;28;20068;-59
2021/11/27 11:36:24;;;;;;;3.67;1.05;;;;;;;;;;5002411;28;20396;-59
2021/11/27 11:38:52;;;;;;;3.28;1.38;;;;;;;;;;5001997;28;20089;-59
2021/11/27 11:41:20;;;;;;;1.40;1.30;;;;;;;;;;5003334;28;20018;-60
2021/11/27 11:43:46;;;;;;;4.22;3.67;;;;;;;;;;5003478;28;20500;-60
2021/11/27 11:46:12;;;;;;;3.17;1.85;;;;;;;;;;5002896;28;20030;-61
2021/11/27 11:48:40;;;;;;;3.70;3.30;;;;;;;;;;5004738;28;20037;-59
2021/11/27 11:51:29;;;;;;;1.98;1.50;;;;;;;;;;5009666;28;20080;-59
2021/11/27 11:53:57;;;;;;;4.60;3.17;;;;;;;;;;5005308;28;20022;-60
2021/11/27 11:56:37;;;;;;;4.15;2.13;;;;;;;;;;5006109;28;20030;-60
2021/11/27 11:59:17;;;;;;;;;;;;;;;;;;5003446;28;20365;-60
2021/11/27 12:01:43;;;;;;;6.13;3.25;;;;;;;;;;4999305;28;20345;-60
2021/11/27 12:04:20;;;;;;;8.02;2.53;;;;;;;;;;5003864;28;20122;-60
2021/11/27 12:06:46;;;;;;;4.30;2.17;;;;;;;;;;5003857;28;20038;-60
2021/11/27 12:09:12;;;;;;;6.22;2.85;;;;;;;;;;5003791;28;20515;-59
2021/11/27 12:11:42;;;;;;;5.10;2.13;;;;;;;;;;5000212;28;20034;-58
2021/11/27 12:14:26;;;;;;;5.30;2.45;;;;;;;;;;5003678;28;20034;-60
2021/11/27 12:17:04;;;;;;;2.10;1.33;;;;;;;;;;5000387;28;20124;-58
2021/11/27 12:19:37;;;;;;;0.90;0.80;;;;;;;;;;5002622;28;20037;-59
2021/11/27 12:22:31;;;;;;;3.08;1.75;;;;;;;;;;5003314;28;20125;-60
2021/11/27 12:25:23;;;;;;;2.70;2.15;;;;;;;;;;5003924;28;20079;-59
2021/11/27 12:28:08;;;;;;;2.53;1.90;;;;;;;;;;5004673;28;20587;-60
2021/11/27 12:30:40;;;;;;;2.33;1.55;;;;;;;;;;5002506;28;20088;-59
2021/11/27 12:33:06;;;;;;;4.22;2.10;;;;;;;;;;4999278;28;20042;-60
2021/11/27 12:35:32;;;;;;;5.13;2.90;;;;;;;;;;4998873;28;20377;-58
2021/11/27 12:38:06;;;;;;;6.53;3.20;;;;;;;;;;4995642;28;20033;-58
2021/11/27 12:40:41;;;;;;;6.32;2.72;;;;;;;;;;5002539;28;20392;-59
2021/11/27 12:43:15;;;;;;;9.95;3.58;;;;;;;;;;5002752;28;20034;-59
2021/11/27 12:45:43;;;;;;;14.32;5.93;;;;;;;;;;4998426;28;20042;-59
2021/11/27 12:48:31;;;;;;;19.35;5.80;;;;;;;;;;4999085;28;20113;-59
2021/11/27 12:51:15;;;;;;;17.85;4.47;;;;;;;;;;5018806;28;20073;-59
2021/11/27 12:54:01;;;;;;;11.00;4.22;;;;;;;;;;5004533;28;20062;-59
2021/11/27 12:56:31;;;;;;;3.33;1.65;;;;;;;;;;5003251;28;20041;-60
2021/11/27 12:58:58;;;;;;;2.13;1.20;;;;;;;;;;5001542;28;20037;-60
2021/11/27 13:01:32;;;;;;;1.67;1.20;;;;;;;;;;4999434;28;20139;-59
2021/11/27 13:03:59;;;;;;;10.57;3.33;;;;;;;;;;5002924;28;20101;-60
2021/11/27 13:06:26;;;;;;;4.78;1.70;;;;;;;;;;4999655;28;20496;-59
2021/11/27 13:08:52;;;;;;;2.97;1.90;;;;;;;;;;4999145;28;20116;-60
2021/11/27 13:11:21;;;;;;;4.45;1.42;;;;;;;;;;5001943;28;20126;-59
2021/11/27 13:13:50;;;;;;;1.80;1.20;;;;;;;;;;4998562;28;20057;-60
2021/11/27 13:16:22;;;;;;;3.10;1.70;;;;;;;;;;4997634;28;20389;-59
2021/11/27 13:18:53;;;;;;;1.60;1.30;;;;;;;;;;4998900;28;20026;-62
2021/11/27 13:21:19;;;;;;;1.63;1.52;;;;;;;;;;5000078;28;20105;-64
2021/11/27 13:23:45;;;;;;;1.23;1.00;;;;;;;;;;4996612;28;20712;-62
2021/11/27 13:26:16;;;;;;;9.77;2.88;;;;;;;;;;5001031;28;20105;-62
2021/11/27 13:28:44;;;;;;;3.40;1.75;;;;;;;;;;5002284;28;20081;-61
2021/11/27 13:31:41;;;;;;;3.88;3.22;;;;;;;;;;4997372;28;20026;-62
2021/11/27 13:34:13;;;;;;;7.65;3.63;;;;;;;;;;4996674;28;20034;-60
2021/11/27 13:36:44;;;;;;;2.58;1.90;;;;;;;;;;4999195;28;20025;-61
2021/11/27 13:39:26;;;;;;;3.03;2.20;;;;;;;;;;5001113;28;20029;-61
2021/11/27 13:42:14;;;;;;;4.18;2.60;;;;;;;;;;4995747;28;20021;-60
2021/11/27 13:44:46;;;;;;;5.25;3.50;;;;;;;;;;4996234;28;20044;-60
2021/11/27 13:47:22;;;;;;;13.05;4.80;;;;;;;;;;4995535;28;20033;-61
2021/11/27 13:49:49;;;;;;;6.00;2.80;;;;;;;;;;5001306;28;20076;-60
2021/11/27 13:52:20;;;;;;;3.65;1.95;;;;;;;;;;4998014;28;20058;-60
2021/11/27 13:54:56;;;;;;;4.80;2.72;;;;;;;;;;5002507;28;20029;-61
2021/11/27 13:57:24;;;;;;;4.95;2.10;;;;;;;;;;5001886;28;20111;-61
2021/11/27 13:59:49;;;;;;;6.93;2.92;;;;;;;;;;5001464;28;20781;-60
2021/11/27 14:02:18;;;;;;;4.75;3.00;;;;;;;;;;4998935;28;20116;-60
2021/11/27 14:04:45;;;;;;;7.32;2.63;;;;;;;;;;5001120;28;20026;-61
2021/11/27 14:07:15;;;;;;;4.55;2.50;;;;;;;;;;4998330;28;20029;-60
2021/11/27 14:10:01;;;;;;;6.38;3.35;;;;;;;;;;4997922;28;20124;-60
2021/11/27 14:12:38;;;;;;;6.82;2.90;;;;;;;;;;5000784;28;20041;-61
2021/11/27 14:15:14;;;;;;;8.38;3.58;;;;;;;;;;4999673;28;20167;-60
2021/11/27 14:18:02;;;;;;;10.10;3.47;;;;;;;;;;5003024;28;20029;-60
2021/11/27 14:20:36;;;;;;;20.08;5.22;;;;;;;;;;4997509;28;20527;-60
2021/11/27 14:23:03;;;;;;;20.75;5.72;;;;;;;;;;5000945;28;20584;-60
2021/11/27 14:25:32;;;;;;;14.05;4.53;;;;;;;;;;5007359;28;20091;-59
2021/11/27 14:28:05;;;;;;;5.50;3.10;;;;;;;;;;4998932;28;20171;-59
2021/11/27 14:30:35;;;;;;;7.53;3.95;;;;;;;;;;5001386;28;20034;-60
2021/11/27 14:33:24;;;;;;;7.38;3.97;;;;;;;;;;5005850;28;20480;-60
2021/11/27 14:36:20;;;;;;;7.43;3.08;;;;;;;;;;5004474;28;20659;-58
2021/11/27 14:38:50;;;;;;;3.03;2.00;;;;;;;;;;5002020;28;20049;-59
2021/11/27 14:41:24;;;;;;;6.57;2.50;;;;;;;;;;5000113;28;20029;-61
2021/11/27 14:43:52;;;;;;;5.65;2.80;;;;;;;;;;5001888;28;20030;-60
2021/11/27 14:46:30;;;;;;;4.57;3.00;;;;;;;;;;5004638;28;20080;-59